sensor_id;sensor_type;location;lat;lon;timestamp;P1;durP1;ratioP1;P2;durP2;ratioP2
57828;SDS011;43657;52.698;6.314;2023-10-09T00:00:50;12.43;;;8.02;;
57828;SDS011;43657;52.698;6.314;2023-10-09T00:03:17;14.50;;;9.13;;
57828;SDS011;43657;52.698;6.314;2023-10-09T00:05:43;17.85;;;10.02;;
57828;SDS011;43657;52.698;6.314;2023-10-09T00:08:12;12.63;;;9.88;;
57828;SDS011;43657;52.698;6.314;2023-10-09T00:10:43;15.15;;;10.38;;
57828;SDS011;43657;52.698;6.314;2023-10-09T00:13:21;15.68;;;10.65;;
57828;SDS011;43657;52.698;6.314;2023-10-09T00:15:58;18.98;;;11.50;;
57828;SDS011;43657;52.698;6.314;2023-10-09T00:18:35;18.42;;;11.95;;
57828;SDS011;43657;52.698;6.314;2023-10-09T00:21:00;20.50;;;13.65;;
57828;SDS011;43657;52.698;6.314;2023-10-09T00:23:36;20.13;;;14.23;;
57828;SDS011;43657;52.698;6.314;2023-10-09T00:26:02;23.40;;;16.98;;
57828;SDS011;43657;52.698;6.314;2023-10-09T00:28:44;23.77;;;16.92;;
57828;SDS011;43657;52.698;6.314;2023-10-09T00:31:12;23.90;;;15.57;;
57828;SDS011;43657;52.698;6.314;2023-10-09T00:33:42;24.63;;;18.80;;
57828;SDS011;43657;52.698;6.314;2023-10-09T00:36:08;29.77;;;21.15;;
57828;SDS011;43657;52.698;6.314;2023-10-09T00:38:34;33.60;;;22.35;;
57828;SDS011;43657;52.698;6.314;2023-10-09T00:41:01;46.78;;;24.00;;
57828;SDS011;43657;52.698;6.314;2023-10-09T00:43:35;43.80;;;23.65;;
57828;SDS011;43657;52.698;6.314;2023-10-09T00:46:02;31.30;;;21.88;;
57828;SDS011;43657;52.698;6.314;2023-10-09T00:48:59;37.97;;;22.48;;
57828;SDS011;43657;52.698;6.314;2023-10-09T00:51:27;35.45;;;24.75;;
57828;SDS011;43657;52.698;6.314;2023-10-09T00:54:00;33.55;;;22.70;;
57828;SDS011;43657;52.698;6.314;2023-10-09T00:56:39;31.88;;;22.40;;
57828;SDS011;43657;52.698;6.314;2023-10-09T00:59:16;38.55;;;26.60;;
57828;SDS011;43657;52.698;6.314;2023-10-09T01:01:45;52.03;;;30.40;;
57828;SDS011;43657;52.698;6.314;2023-10-09T01:04:29;41.75;;;28.30;;
57828;SDS011;43657;52.698;6.314;2023-10-09T01:07:02;49.08;;;29.17;;
57828;SDS011;43657;52.698;6.314;2023-10-09T01:09:40;37.42;;;26.90;;
57828;SDS011;43657;52.698;6.314;2023-10-09T01:12:09;44.78;;;31.33;;
57828;SDS011;43657;52.698;6.314;2023-10-09T01:14:46;47.90;;;33.25;;
57828;SDS011;43657;52.698;6.314;2023-10-09T01:17:17;42.72;;;30.70;;
57828;SDS011;43657;52.698;6.314;2023-10-09T01:19:55;46.55;;;31.65;;
57828;SDS011;43657;52.698;6.314;2023-10-09T01:22:21;48.00;;;31.50;;
57828;SDS011;43657;52.698;6.314;2023-10-09T01:24:47;48.95;;;30.58;;
57828;SDS011;43657;52.698;6.314;2023-10-09T01:27:15;46.83;;;32.67;;
57828;SDS011;43657;52.698;6.314;2023-10-09T01:29:41;52.13;;;29.35;;
57828;SDS011;43657;52.698;6.314;2023-10-09T01:32:07;57.30;;;32.33;;
57828;SDS011;43657;52.698;6.314;2023-10-09T01:34:41;46.05;;;31.77;;
57828;SDS011;43657;52.698;6.314;2023-10-09T01:37:11;64.03;;;35.80;;
57828;SDS011;43657;52.698;6.314;2023-10-09T01:39:47;71.22;;;41.03;;
57828;SDS011;43657;52.698;6.314;2023-10-09T01:42:14;52.70;;;37.47;;
57828;SDS011;43657;52.698;6.314;2023-10-09T01:44:49;63.88;;;42.03;;
57828;SDS011;43657;52.698;6.314;2023-10-09T01:47:16;74.88;;;43.90;;
57828;SDS011;43657;52.698;6.314;2023-10-09T01:49:43;79.63;;;45.00;;
57828;SDS011;43657;52.698;6.314;2023-10-09T01:52:14;65.53;;;41.95;;
57828;SDS011;43657;52.698;6.314;2023-10-09T01:54:44;88.88;;;52.30;;
57828;SDS011;43657;52.698;6.314;2023-10-09T01:59:49;65.10;;;43.42;;
57828;SDS011;43657;52.698;6.314;2023-10-09T02:02:18;67.68;;;44.40;;
57828;SDS011;43657;52.698;6.314;2023-10-09T02:04:54;119.93;;;58.60;;
57828;SDS011;43657;52.698;6.314;2023-10-09T02:07:36;73.68;;;47.42;;
57828;SDS011;43657;52.698;6.314;2023-10-09T02:10:14;79.95;;;48.65;;
57828;SDS011;43657;52.698;6.314;2023-10-09T02:13:06;77.63;;;45.25;;
57828;SDS011;43657;52.698;6.314;2023-10-09T02:15:33;74.28;;;47.28;;
57828;SDS011;43657;52.698;6.314;2023-10-09T02:18:05;86.93;;;49.50;;
57828;SDS011;43657;52.698;6.314;2023-10-09T02:20:47;115.43;;;58.15;;
57828;SDS011;43657;52.698;6.314;2023-10-09T02:23:34;82.40;;;47.55;;
57828;SDS011;43657;52.698;6.314;2023-10-09T02:26:13;82.93;;;52.42;;
57828;SDS011;43657;52.698;6.314;2023-10-09T02:28:53;86.47;;;51.28;;
57828;SDS011;43657;52.698;6.314;2023-10-09T02:31:40;128.63;;;64.65;;
57828;SDS011;43657;52.698;6.314;2023-10-09T02:34:08;83.68;;;52.00;;
57828;SDS011;43657;52.698;6.314;2023-10-09T02:36:35;87.95;;;54.47;;
57828;SDS011;43657;52.698;6.314;2023-10-09T02:39:07;95.45;;;57.08;;
57828;SDS011;43657;52.698;6.314;2023-10-09T02:41:48;102.18;;;57.72;;
57828;SDS011;43657;52.698;6.314;2023-10-09T02:44:15;96.10;;;61.17;;
57828;SDS011;43657;52.698;6.314;2023-10-09T02:46:42;108.78;;;61.17;;
57828;SDS011;43657;52.698;6.314;2023-10-09T02:49:09;171.88;;;79.43;;
57828;SDS011;43657;52.698;6.314;2023-10-09T02:51:40;111.05;;;64.65;;
57828;SDS011;43657;52.698;6.314;2023-10-09T02:54:07;113.82;;;63.75;;
57828;SDS011;43657;52.698;6.314;2023-10-09T02:56:43;111.30;;;61.40;;
57828;SDS011;43657;52.698;6.314;2023-10-09T02:59:18;176.07;;;81.15;;
57828;SDS011;43657;52.698;6.314;2023-10-09T03:01:47;128.60;;;68.82;;
57828;SDS011;43657;52.698;6.314;2023-10-09T03:04:13;136.65;;;70.40;;
57828;SDS011;43657;52.698;6.314;2023-10-09T03:06:39;170.95;;;79.45;;
57828;SDS011;43657;52.698;6.314;2023-10-09T03:09:16;131.98;;;70.43;;
57828;SDS011;43657;52.698;6.314;2023-10-09T03:11:51;159.25;;;78.13;;
57828;SDS011;43657;52.698;6.314;2023-10-09T03:14:25;111.47;;;68.20;;
57828;SDS011;43657;52.698;6.314;2023-10-09T03:16:54;143.73;;;74.20;;
57828;SDS011;43657;52.698;6.314;2023-10-09T03:19:22;99.63;;;64.40;;
57828;SDS011;43657;52.698;6.314;2023-10-09T03:21:50;118.25;;;67.28;;
57828;SDS011;43657;52.698;6.314;2023-10-09T03:24:15;93.78;;;59.85;;
57828;SDS011;43657;52.698;6.314;2023-10-09T03:26:41;104.38;;;66.72;;
57828;SDS011;43657;52.698;6.314;2023-10-09T03:29:09;108.13;;;64.57;;
57828;SDS011;43657;52.698;6.314;2023-10-09T03:31:36;101.32;;;60.28;;
57828;SDS011;43657;52.698;6.314;2023-10-09T03:34:03;117.47;;;67.38;;
57828;SDS011;43657;52.698;6.314;2023-10-09T03:36:33;115.22;;;62.90;;
57828;SDS011;43657;52.698;6.314;2023-10-09T03:39:06;144.27;;;74.40;;
57828;SDS011;43657;52.698;6.314;2023-10-09T03:41:51;97.25;;;61.15;;
57828;SDS011;43657;52.698;6.314;2023-10-09T03:44:19;103.43;;;65.30;;
57828;SDS011;43657;52.698;6.314;2023-10-09T03:46:45;101.68;;;63.00;;
57828;SDS011;43657;52.698;6.314;2023-10-09T03:49:11;119.07;;;67.18;;
57828;SDS011;43657;52.698;6.314;2023-10-09T03:51:38;137.88;;;74.65;;
57828;SDS011;43657;52.698;6.314;2023-10-09T03:54:04;104.95;;;66.25;;
57828;SDS011;43657;52.698;6.314;2023-10-09T03:56:33;104.20;;;65.38;;
57828;SDS011;43657;52.698;6.314;2023-10-09T03:58:59;154.98;;;82.85;;
57828;SDS011;43657;52.698;6.314;2023-10-09T04:01:26;106.10;;;66.68;;
57828;SDS011;43657;52.698;6.314;2023-10-09T04:04:03;122.75;;;67.45;;
57828;SDS011;43657;52.698;6.314;2023-10-09T04:06:31;110.95;;;69.25;;
57828;SDS011;43657;52.698;6.314;2023-10-09T04:09:00;102.22;;;66.50;;
57828;SDS011;43657;52.698;6.314;2023-10-09T04:11:39;112.25;;;68.22;;
57828;SDS011;43657;52.698;6.314;2023-10-09T04:14:08;139.88;;;76.80;;
57828;SDS011;43657;52.698;6.314;2023-10-09T04:16:38;102.60;;;65.40;;
57828;SDS011;43657;52.698;6.314;2023-10-09T04:19:16;107.93;;;67.35;;
57828;SDS011;43657;52.698;6.314;2023-10-09T04:21:47;91.25;;;60.20;;
57828;SDS011;43657;52.698;6.314;2023-10-09T04:24:13;125.32;;;71.10;;
57828;SDS011;43657;52.698;6.314;2023-10-09T04:26:39;84.72;;;59.47;;
57828;SDS011;43657;52.698;6.314;2023-10-09T04:29:18;92.47;;;61.10;;
57828;SDS011;43657;52.698;6.314;2023-10-09T04:31:57;94.32;;;58.92;;
57828;SDS011;43657;52.698;6.314;2023-10-09T04:34:25;96.85;;;61.20;;
57828;SDS011;43657;52.698;6.314;2023-10-09T04:37:00;94.25;;;62.47;;
57828;SDS011;43657;52.698;6.314;2023-10-09T04:39:29;78.60;;;56.35;;
57828;SDS011;43657;52.698;6.314;2023-10-09T04:41:58;80.30;;;56.90;;
57828;SDS011;43657;52.698;6.314;2023-10-09T06:42:38;32.03;;;24.88;;
57828;SDS011;43657;52.698;6.314;2023-10-09T06:47:33;30.98;;;22.83;;
57828;SDS011;43657;52.698;6.314;2023-10-09T06:50:09;27.60;;;22.25;;
57828;SDS011;43657;52.698;6.314;2023-10-09T06:52:54;28.42;;;20.63;;
57828;SDS011;43657;52.698;6.314;2023-10-09T08:44:12;23.38;;;15.38;;
57828;SDS011;43657;52.698;6.314;2023-10-09T08:46:40;24.70;;;14.82;;
57828;SDS011;43657;52.698;6.314;2023-10-09T08:49:07;24.05;;;15.57;;
57828;SDS011;43657;52.698;6.314;2023-10-09T08:51:35;59.13;;;24.98;;
57828;SDS011;43657;52.698;6.314;2023-10-09T08:54:02;25.30;;;14.48;;
57828;SDS011;43657;52.698;6.314;2023-10-09T08:56:29;61.70;;;28.85;;
57828;SDS011;43657;52.698;6.314;2023-10-09T08:58:57;26.23;;;14.85;;
57828;SDS011;43657;52.698;6.314;2023-10-09T09:01:24;20.50;;;13.63;;
57828;SDS011;43657;52.698;6.314;2023-10-09T09:03:51;22.52;;;13.88;;
57828;SDS011;43657;52.698;6.314;2023-10-09T09:06:20;22.77;;;14.52;;
57828;SDS011;43657;52.698;6.314;2023-10-09T09:08:48;20.60;;;13.45;;
57828;SDS011;43657;52.698;6.314;2023-10-09T09:11:19;19.40;;;13.55;;
57828;SDS011;43657;52.698;6.314;2023-10-09T09:16:39;20.98;;;13.80;;
57828;SDS011;43657;52.698;6.314;2023-10-09T09:19:13;25.95;;;14.00;;
57828;SDS011;43657;52.698;6.314;2023-10-09T09:21:58;20.67;;;13.80;;
57828;SDS011;43657;52.698;6.314;2023-10-09T09:24:37;24.00;;;14.05;;
57828;SDS011;43657;52.698;6.314;2023-10-09T09:27:04;20.88;;;13.10;;
57828;SDS011;43657;52.698;6.314;2023-10-09T09:29:46;20.95;;;13.90;;
57828;SDS011;43657;52.698;6.314;2023-10-09T09:32:28;17.98;;;13.10;;
57828;SDS011;43657;52.698;6.314;2023-10-09T09:35:00;24.42;;;14.23;;
57828;SDS011;43657;52.698;6.314;2023-10-09T09:37:29;27.73;;;14.10;;
57828;SDS011;43657;52.698;6.314;2023-10-09T09:40:08;22.90;;;13.32;;
57828;SDS011;43657;52.698;6.314;2023-10-09T09:42:43;24.92;;;13.73;;
57828;SDS011;43657;52.698;6.314;2023-10-09T09:45:13;17.30;;;11.90;;
57828;SDS011;43657;52.698;6.314;2023-10-09T09:47:39;22.45;;;13.02;;
57828;SDS011;43657;52.698;6.314;2023-10-09T09:50:12;21.58;;;12.88;;
57828;SDS011;43657;52.698;6.314;2023-10-09T09:52:47;16.77;;;10.75;;
57828;SDS011;43657;52.698;6.314;2023-10-09T09:55:15;21.90;;;11.95;;
57828;SDS011;43657;52.698;6.314;2023-10-09T09:57:48;17.98;;;12.70;;
57828;SDS011;43657;52.698;6.314;2023-10-09T10:00:21;17.58;;;11.65;;
57828;SDS011;43657;52.698;6.314;2023-10-09T10:03:10;21.38;;;12.32;;
57828;SDS011;43657;52.698;6.314;2023-10-09T10:05:39;20.77;;;12.48;;
57828;SDS011;43657;52.698;6.314;2023-10-09T10:08:08;19.77;;;11.57;;
57828;SDS011;43657;52.698;6.314;2023-10-09T10:10:39;19.17;;;11.77;;
57828;SDS011;43657;52.698;6.314;2023-10-09T10:16:14;18.75;;;10.15;;
57828;SDS011;43657;52.698;6.314;2023-10-09T10:21:22;18.02;;;10.77;;
57828;SDS011;43657;52.698;6.314;2023-10-09T10:27:17;17.88;;;10.05;;
57828;SDS011;43657;52.698;6.314;2023-10-09T10:30:26;18.67;;;10.88;;
57828;SDS011;43657;52.698;6.314;2023-10-09T10:32:53;21.27;;;10.85;;
57828;SDS011;43657;52.698;6.314;2023-10-09T10:35:35;20.48;;;9.65;;
57828;SDS011;43657;52.698;6.314;2023-10-09T10:38:21;18.08;;;9.65;;
57828;SDS011;43657;52.698;6.314;2023-10-09T10:40:46;17.65;;;9.77;;
57828;SDS011;43657;52.698;6.314;2023-10-09T10:43:22;19.65;;;9.73;;
57828;SDS011;43657;52.698;6.314;2023-10-09T10:46:05;22.05;;;10.25;;
57828;SDS011;43657;52.698;6.314;2023-10-09T10:48:49;16.08;;;9.60;;
57828;SDS011;43657;52.698;6.314;2023-10-09T10:51:23;18.10;;;9.93;;
57828;SDS011;43657;52.698;6.314;2023-10-09T10:53:59;17.75;;;9.50;;
57828;SDS011;43657;52.698;6.314;2023-10-09T10:56:46;16.65;;;9.52;;
57828;SDS011;43657;52.698;6.314;2023-10-09T10:59:12;15.45;;;9.38;;
57828;SDS011;43657;52.698;6.314;2023-10-09T11:01:38;16.75;;;9.30;;
57828;SDS011;43657;52.698;6.314;2023-10-09T11:04:39;15.25;;;9.57;;
57828;SDS011;43657;52.698;6.314;2023-10-09T11:07:08;21.58;;;9.48;;
57828;SDS011;43657;52.698;6.314;2023-10-09T11:09:47;17.80;;;9.13;;
57828;SDS011;43657;52.698;6.314;2023-10-09T11:12:27;16.30;;;9.68;;
57828;SDS011;43657;52.698;6.314;2023-10-09T11:15:35;17.15;;;9.10;;
57828;SDS011;43657;52.698;6.314;2023-10-09T11:18:13;16.48;;;8.93;;
57828;SDS011;43657;52.698;6.314;2023-10-09T11:20:55;17.27;;;9.75;;
57828;SDS011;43657;52.698;6.314;2023-10-09T11:23:44;15.57;;;9.00;;
57828;SDS011;43657;52.698;6.314;2023-10-09T11:26:31;17.83;;;9.88;;
57828;SDS011;43657;52.698;6.314;2023-10-09T11:29:23;16.20;;;9.15;;
57828;SDS011;43657;52.698;6.314;2023-10-09T11:32:06;16.20;;;9.15;;
57828;SDS011;43657;52.698;6.314;2023-10-09T11:34:42;15.65;;;9.15;;
57828;SDS011;43657;52.698;6.314;2023-10-09T11:37:17;16.38;;;9.82;;
57828;SDS011;43657;52.698;6.314;2023-10-09T11:39:58;18.33;;;9.98;;
57828;SDS011;43657;52.698;6.314;2023-10-09T11:42:29;15.88;;;9.07;;
57828;SDS011;43657;52.698;6.314;2023-10-09T11:45:02;19.52;;;10.00;;
57828;SDS011;43657;52.698;6.314;2023-10-09T11:47:44;19.95;;;9.95;;
57828;SDS011;43657;52.698;6.314;2023-10-09T11:50:36;14.45;;;9.13;;
57828;SDS011;43657;52.698;6.314;2023-10-09T11:53:08;15.43;;;9.30;;
57828;SDS011;43657;52.698;6.314;2023-10-09T11:55:35;13.75;;;8.55;;
57828;SDS011;43657;52.698;6.314;2023-10-09T11:58:02;20.00;;;8.95;;
57828;SDS011;43657;52.698;6.314;2023-10-09T12:00:29;15.82;;;9.35;;
57828;SDS011;43657;52.698;6.314;2023-10-09T12:03:01;18.53;;;8.90;;
57828;SDS011;43657;52.698;6.314;2023-10-09T12:05:31;15.77;;;8.70;;
57828;SDS011;43657;52.698;6.314;2023-10-09T12:07:58;14.48;;;8.40;;
57828;SDS011;43657;52.698;6.314;2023-10-09T12:10:26;14.55;;;8.07;;
57828;SDS011;43657;52.698;6.314;2023-10-09T12:12:52;12.20;;;7.35;;
57828;SDS011;43657;52.698;6.314;2023-10-09T12:15:18;15.60;;;8.02;;
57828;SDS011;43657;52.698;6.314;2023-10-09T12:17:46;13.55;;;8.23;;
57828;SDS011;43657;52.698;6.314;2023-10-09T12:20:18;12.90;;;7.80;;
57828;SDS011;43657;52.698;6.314;2023-10-09T12:22:57;11.93;;;6.68;;
57828;SDS011;43657;52.698;6.314;2023-10-09T12:25:24;12.07;;;7.05;;
57828;SDS011;43657;52.698;6.314;2023-10-09T12:27:50;10.35;;;6.18;;
57828;SDS011;43657;52.698;6.314;2023-10-09T12:30:19;12.85;;;7.32;;
57828;SDS011;43657;52.698;6.314;2023-10-09T12:32:51;12.13;;;6.70;;
57828;SDS011;43657;52.698;6.314;2023-10-09T12:35:18;12.65;;;6.45;;
57828;SDS011;43657;52.698;6.314;2023-10-09T12:37:44;13.60;;;6.22;;
57828;SDS011;43657;52.698;6.314;2023-10-09T12:40:09;11.68;;;6.07;;
57828;SDS011;43657;52.698;6.314;2023-10-09T12:42:36;13.55;;;6.07;;
57828;SDS011;43657;52.698;6.314;2023-10-09T12:45:02;11.57;;;6.20;;
57828;SDS011;43657;52.698;6.314;2023-10-09T12:47:33;11.15;;;5.60;;
57828;SDS011;43657;52.698;6.314;2023-10-09T12:50:02;11.95;;;5.70;;
57828;SDS011;43657;52.698;6.314;2023-10-09T12:52:37;12.25;;;5.32;;
57828;SDS011;43657;52.698;6.314;2023-10-09T12:55:03;9.55;;;5.18;;
57828;SDS011;43657;52.698;6.314;2023-10-09T12:57:33;9.43;;;5.50;;
57828;SDS011;43657;52.698;6.314;2023-10-09T12:59:59;13.07;;;5.30;;
57828;SDS011;43657;52.698;6.314;2023-10-09T13:02:25;11.88;;;5.55;;
57828;SDS011;43657;52.698;6.314;2023-10-09T13:04:55;11.32;;;5.30;;
57828;SDS011;43657;52.698;6.314;2023-10-09T13:07:25;10.85;;;5.90;;
57828;SDS011;43657;52.698;6.314;2023-10-09T13:09:51;11.80;;;5.45;;
57828;SDS011;43657;52.698;6.314;2023-10-09T13:12:37;9.10;;;4.90;;
57828;SDS011;43657;52.698;6.314;2023-10-09T13:15:09;11.50;;;5.13;;
57828;SDS011;43657;52.698;6.314;2023-10-09T13:17:38;10.95;;;5.43;;
57828;SDS011;43657;52.698;6.314;2023-10-09T13:22:52;13.57;;;5.25;;
57828;SDS011;43657;52.698;6.314;2023-10-09T13:25:18;11.82;;;4.97;;
57828;SDS011;43657;52.698;6.314;2023-10-09T13:27:49;9.98;;;5.47;;
57828;SDS011;43657;52.698;6.314;2023-10-09T13:30:19;13.10;;;5.45;;
57828;SDS011;43657;52.698;6.314;2023-10-09T13:32:48;9.38;;;5.03;;
57828;SDS011;43657;52.698;6.314;2023-10-09T13:35:18;11.45;;;5.32;;
57828;SDS011;43657;52.698;6.314;2023-10-09T13:37:44;12.18;;;5.40;;
57828;SDS011;43657;52.698;6.314;2023-10-09T13:40:19;10.23;;;5.85;;
57828;SDS011;43657;52.698;6.314;2023-10-09T13:42:54;13.15;;;5.70;;
57828;SDS011;43657;52.698;6.314;2023-10-09T13:45:24;12.93;;;6.18;;
57828;SDS011;43657;52.698;6.314;2023-10-09T13:47:56;12.50;;;6.15;;
57828;SDS011;43657;52.698;6.314;2023-10-09T13:50:25;11.07;;;5.30;;
57828;SDS011;43657;52.698;6.314;2023-10-09T13:52:57;11.20;;;5.15;;
57828;SDS011;43657;52.698;6.314;2023-10-09T13:55:23;8.27;;;4.30;;
57828;SDS011;43657;52.698;6.314;2023-10-09T13:57:56;10.95;;;5.32;;
57828;SDS011;43657;52.698;6.314;2023-10-09T14:00:25;11.93;;;4.50;;
57828;SDS011;43657;52.698;6.314;2023-10-09T14:03:07;10.32;;;4.38;;
57828;SDS011;43657;52.698;6.314;2023-10-09T14:05:39;9.10;;;4.38;;
57828;SDS011;43657;52.698;6.314;2023-10-09T14:08:17;8.93;;;4.80;;
57828;SDS011;43657;52.698;6.314;2023-10-09T14:10:47;10.30;;;4.80;;
57828;SDS011;43657;52.698;6.314;2023-10-09T14:13:13;9.80;;;4.70;;
57828;SDS011;43657;52.698;6.314;2023-10-09T14:15:41;9.98;;;5.18;;
57828;SDS011;43657;52.698;6.314;2023-10-09T14:18:08;11.02;;;5.28;;
57828;SDS011;43657;52.698;6.314;2023-10-09T14:20:36;9.65;;;5.45;;
57828;SDS011;43657;52.698;6.314;2023-10-09T14:23:06;10.98;;;5.20;;
57828;SDS011;43657;52.698;6.314;2023-10-09T14:25:33;10.70;;;5.25;;
57828;SDS011;43657;52.698;6.314;2023-10-09T14:28:02;11.80;;;5.30;;
57828;SDS011;43657;52.698;6.314;2023-10-09T14:30:32;10.77;;;4.50;;
57828;SDS011;43657;52.698;6.314;2023-10-09T14:33:06;11.57;;;5.25;;
57828;SDS011;43657;52.698;6.314;2023-10-09T14:35:37;10.57;;;5.00;;
57828;SDS011;43657;52.698;6.314;2023-10-09T14:38:07;10.25;;;4.78;;
57828;SDS011;43657;52.698;6.314;2023-10-09T14:40:44;10.23;;;5.30;;
57828;SDS011;43657;52.698;6.314;2023-10-09T14:43:10;11.30;;;5.30;;
57828;SDS011;43657;52.698;6.314;2023-10-09T14:45:46;11.98;;;5.75;;
57828;SDS011;43657;52.698;6.314;2023-10-09T14:48:13;11.45;;;5.82;;
57828;SDS011;43657;52.698;6.314;2023-10-09T14:50:49;13.20;;;6.07;;
57828;SDS011;43657;52.698;6.314;2023-10-09T14:53:18;12.10;;;6.00;;
57828;SDS011;43657;52.698;6.314;2023-10-09T16:31:32;12.32;;;5.30;;
57828;SDS011;43657;52.698;6.314;2023-10-09T16:34:00;8.75;;;4.72;;
57828;SDS011;43657;52.698;6.314;2023-10-09T16:36:30;10.23;;;5.13;;
57828;SDS011;43657;52.698;6.314;2023-10-09T16:38:56;9.98;;;4.80;;
57828;SDS011;43657;52.698;6.314;2023-10-09T16:41:24;9.85;;;4.20;;
57828;SDS011;43657;52.698;6.314;2023-10-09T16:43:51;9.43;;;4.70;;
57828;SDS011;43657;52.698;6.314;2023-10-09T16:56:39;10.20;;;4.05;;
57828;SDS011;43657;52.698;6.314;2023-10-09T16:59:07;11.00;;;4.60;;
57828;SDS011;43657;52.698;6.314;2023-10-09T17:01:45;12.90;;;4.80;;
57828;SDS011;43657;52.698;6.314;2023-10-09T17:04:10;11.55;;;4.95;;
57828;SDS011;43657;52.698;6.314;2023-10-09T17:06:36;8.73;;;4.10;;
57828;SDS011;43657;52.698;6.314;2023-10-09T17:09:04;9.10;;;4.00;;
57828;SDS011;43657;52.698;6.314;2023-10-09T17:11:33;11.65;;;4.10;;
57828;SDS011;43657;52.698;6.314;2023-10-09T17:14:01;10.55;;;4.38;;
57828;SDS011;43657;52.698;6.314;2023-10-09T17:16:30;10.10;;;4.07;;
57828;SDS011;43657;52.698;6.314;2023-10-09T17:18:56;10.77;;;4.30;;
57828;SDS011;43657;52.698;6.314;2023-10-09T17:21:25;11.50;;;4.50;;
57828;SDS011;43657;52.698;6.314;2023-10-09T17:23:51;7.65;;;3.90;;
57828;SDS011;43657;52.698;6.314;2023-10-09T17:26:23;9.48;;;4.22;;
57828;SDS011;43657;52.698;6.314;2023-10-09T17:28:49;10.45;;;4.50;;
57828;SDS011;43657;52.698;6.314;2023-10-09T17:31:18;9.30;;;4.53;;
57828;SDS011;43657;52.698;6.314;2023-10-09T17:33:48;10.27;;;4.68;;
57828;SDS011;43657;52.698;6.314;2023-10-09T17:36:15;8.23;;;4.32;;
57828;SDS011;43657;52.698;6.314;2023-10-09T17:39:01;8.82;;;4.40;;
57828;SDS011;43657;52.698;6.314;2023-10-09T17:41:52;9.07;;;4.03;;
57828;SDS011;43657;52.698;6.314;2023-10-09T17:47:32;9.55;;;4.72;;
57828;SDS011;43657;52.698;6.314;2023-10-09T17:50:21;6.80;;;3.97;;
57828;SDS011;43657;52.698;6.314;2023-10-09T17:52:55;9.93;;;4.32;;
57828;SDS011;43657;52.698;6.314;2023-10-09T17:55:30;11.43;;;4.75;;
57828;SDS011;43657;52.698;6.314;2023-10-09T18:01:10;9.68;;;4.40;;
57828;SDS011;43657;52.698;6.314;2023-10-09T18:04:10;9.52;;;4.43;;
57828;SDS011;43657;52.698;6.314;2023-10-09T18:06:47;11.20;;;5.15;;
57828;SDS011;43657;52.698;6.314;2023-10-09T18:09:15;8.48;;;3.92;;
57828;SDS011;43657;52.698;6.314;2023-10-09T18:11:55;11.25;;;4.50;;
57828;SDS011;43657;52.698;6.314;2023-10-09T18:14:26;9.35;;;4.38;;
57828;SDS011;43657;52.698;6.314;2023-10-09T18:16:59;8.73;;;4.22;;
57828;SDS011;43657;52.698;6.314;2023-10-09T18:19:28;7.22;;;4.20;;
57828;SDS011;43657;52.698;6.314;2023-10-09T18:21:58;10.50;;;4.20;;
57828;SDS011;43657;52.698;6.314;2023-10-09T18:24:26;8.15;;;3.90;;
57828;SDS011;43657;52.698;6.314;2023-10-09T18:26:52;8.88;;;4.63;;
57828;SDS011;43657;52.698;6.314;2023-10-09T18:29:17;8.50;;;4.07;;
57828;SDS011;43657;52.698;6.314;2023-10-09T18:31:46;9.15;;;4.30;;
57828;SDS011;43657;52.698;6.314;2023-10-09T18:34:36;8.65;;;4.00;;
57828;SDS011;43657;52.698;6.314;2023-10-09T18:37:21;9.80;;;4.40;;
57828;SDS011;43657;52.698;6.314;2023-10-09T18:39:50;10.68;;;4.05;;
57828;SDS011;43657;52.698;6.314;2023-10-09T18:42:16;7.72;;;3.72;;
57828;SDS011;43657;52.698;6.314;2023-10-09T18:44:43;8.98;;;5.10;;
57828;SDS011;43657;52.698;6.314;2023-10-09T18:47:09;10.18;;;5.20;;
57828;SDS011;43657;52.698;6.314;2023-10-09T18:49:40;10.02;;;5.72;;
57828;SDS011;43657;52.698;6.314;2023-10-09T18:52:06;11.75;;;6.22;;
57828;SDS011;43657;52.698;6.314;2023-10-09T18:54:35;11.40;;;5.80;;
57828;SDS011;43657;52.698;6.314;2023-10-09T18:57:04;10.82;;;5.60;;
57828;SDS011;43657;52.698;6.314;2023-10-09T18:59:30;9.65;;;4.97;;
57828;SDS011;43657;52.698;6.314;2023-10-09T19:01:56;8.38;;;4.80;;
57828;SDS011;43657;52.698;6.314;2023-10-09T19:04:22;7.70;;;4.25;;
57828;SDS011;43657;52.698;6.314;2023-10-09T19:06:48;8.77;;;4.45;;
57828;SDS011;43657;52.698;6.314;2023-10-09T19:09:14;7.75;;;4.07;;
57828;SDS011;43657;52.698;6.314;2023-10-09T19:11:45;7.93;;;4.75;;
57828;SDS011;43657;52.698;6.314;2023-10-09T19:14:24;9.30;;;4.90;;
57828;SDS011;43657;52.698;6.314;2023-10-09T19:16:50;11.25;;;4.60;;
57828;SDS011;43657;52.698;6.314;2023-10-09T19:19:16;10.38;;;4.78;;
57828;SDS011;43657;52.698;6.314;2023-10-09T19:21:42;8.93;;;4.97;;
57828;SDS011;43657;52.698;6.314;2023-10-09T19:24:11;7.47;;;4.60;;
57828;SDS011;43657;52.698;6.314;2023-10-09T19:26:40;11.05;;;5.38;;
57828;SDS011;43657;52.698;6.314;2023-10-09T19:29:07;10.90;;;4.53;;
57828;SDS011;43657;52.698;6.314;2023-10-09T19:31:33;10.30;;;4.95;;
57828;SDS011;43657;52.698;6.314;2023-10-09T19:33:59;10.95;;;4.93;;
57828;SDS011;43657;52.698;6.314;2023-10-09T19:36:25;11.25;;;5.03;;
57828;SDS011;43657;52.698;6.314;2023-10-09T19:38:52;10.73;;;4.68;;
57828;SDS011;43657;52.698;6.314;2023-10-09T19:41:18;10.07;;;5.15;;
57828;SDS011;43657;52.698;6.314;2023-10-09T19:43:45;10.63;;;4.63;;
57828;SDS011;43657;52.698;6.314;2023-10-09T19:46:14;10.07;;;5.97;;
57828;SDS011;43657;52.698;6.314;2023-10-09T19:48:43;8.60;;;4.68;;
57828;SDS011;43657;52.698;6.314;2023-10-09T19:51:10;9.02;;;5.00;;
57828;SDS011;43657;52.698;6.314;2023-10-09T19:53:38;10.50;;;5.05;;
57828;SDS011;43657;52.698;6.314;2023-10-09T19:56:07;11.10;;;5.43;;
57828;SDS011;43657;52.698;6.314;2023-10-09T19:58:36;11.40;;;5.60;;
57828;SDS011;43657;52.698;6.314;2023-10-09T20:01:09;9.90;;;5.50;;
57828;SDS011;43657;52.698;6.314;2023-10-09T20:03:39;9.15;;;5.30;;
57828;SDS011;43657;52.698;6.314;2023-10-09T20:06:08;12.30;;;5.45;;
57828;SDS011;43657;52.698;6.314;2023-10-09T20:08:33;9.55;;;5.93;;
57828;SDS011;43657;52.698;6.314;2023-10-09T20:11:09;10.32;;;6.18;;
57828;SDS011;43657;52.698;6.314;2023-10-09T20:13:37;15.40;;;6.13;;
57828;SDS011;43657;52.698;6.314;2023-10-09T20:16:06;11.95;;;6.70;;
57828;SDS011;43657;52.698;6.314;2023-10-09T20:22:16;8.98;;;5.90;;
57828;SDS011;43657;52.698;6.314;2023-10-09T20:24:45;9.48;;;5.75;;
57828;SDS011;43657;52.698;6.314;2023-10-09T20:27:17;11.68;;;6.75;;
57828;SDS011;43657;52.698;6.314;2023-10-09T20:29:45;11.38;;;6.00;;
57828;SDS011;43657;52.698;6.314;2023-10-09T20:32:11;11.20;;;6.80;;
57828;SDS011;43657;52.698;6.314;2023-10-09T20:34:42;13.80;;;7.00;;
57828;SDS011;43657;52.698;6.314;2023-10-09T20:37:12;10.52;;;6.60;;
57828;SDS011;43657;52.698;6.314;2023-10-09T20:39:45;11.63;;;6.93;;
57828;SDS011;43657;52.698;6.314;2023-10-09T20:42:25;12.50;;;7.80;;
57828;SDS011;43657;52.698;6.314;2023-10-09T20:45:18;13.38;;;7.35;;
57828;SDS011;43657;52.698;6.314;2023-10-09T20:47:49;9.57;;;6.70;;
57828;SDS011;43657;52.698;6.314;2023-10-09T20:50:47;12.38;;;8.80;;
57828;SDS011;43657;52.698;6.314;2023-10-09T20:53:13;10.38;;;6.82;;
57828;SDS011;43657;52.698;6.314;2023-10-09T20:55:39;10.25;;;6.85;;
57828;SDS011;43657;52.698;6.314;2023-10-09T20:58:05;11.70;;;7.05;;